createdAt,value
2022-08-05T00:02:19.294Z,3.60
2022-08-05T00:04:55.884Z,2.60
2022-08-05T00:07:59.034Z,2.80
2022-08-05T00:10:12.785Z,3.20
2022-08-05T00:12:55.993Z,2.30
2022-08-05T00:15:55.578Z,3.60
2022-08-05T00:18:21.502Z,2.50
2022-08-05T00:20:50.898Z,4.00
2022-08-05T00:23:44.685Z,3.90
2022-08-05T00:26:08.465Z,4.70
2022-08-05T00:28:37.122Z,4.90
2022-08-05T00:31:07.623Z,4.60
2022-08-05T00:34:53.413Z,2.50
2022-08-05T00:37:11.307Z,2.90
2022-08-05T00:39:14.030Z,2.80
2022-08-05T00:41:55.077Z,2.50
2022-08-05T00:44:30.398Z,5.30
2022-08-05T00:47:02.110Z,3.00
2022-08-05T00:49:51.259Z,3.40
2022-08-05T00:52:28.239Z,2.20
2022-08-05T00:54:56.473Z,3.10
2022-08-05T00:57:25.406Z,3.80
2022-08-05T00:59:59.967Z,3.70
2022-08-05T01:02:27.865Z,3.20
2022-08-05T01:04:55.772Z,2.90
2022-08-05T01:07:23.946Z,3.50
2022-08-05T01:09:59.900Z,3.10
2022-08-05T01:12:29.678Z,2.80
2022-08-05T01:15:04.084Z,3.30
2022-08-05T01:17:53.712Z,3.70
2022-08-05T01:20:44.776Z,4.50
2022-08-05T01:23:45.511Z,3.90
2022-08-05T01:26:45.623Z,3.50
2022-08-05T01:29:23.146Z,3.80
2022-08-05T01:31:58.607Z,5.00
2022-08-05T01:34:31.192Z,2.70
2022-08-05T01:37:32.712Z,3.30
2022-08-05T01:41:20.972Z,2.70
2022-08-05T01:45:12.359Z,2.80
2022-08-05T01:48:54.365Z,4.60
2022-08-05T01:52:38.407Z,4.70
2022-08-05T01:55:42.352Z,3.40
2022-08-05T01:58:59.383Z,2.70
2022-08-05T02:02:00.427Z,3.50
2022-08-05T02:05:47.760Z,4.60
2022-08-05T02:09:16.477Z,2.90
2022-08-05T02:12:58.461Z,3.10
2022-08-05T02:15:59.342Z,4.50
2022-08-05T02:19:13.658Z,5.00
2022-08-05T02:22:38.372Z,4.00
2022-08-05T02:26:12.444Z,3.60
2022-08-05T02:29:58.830Z,3.30
2022-08-05T02:33:12.813Z,2.40
2022-08-05T02:36:52.645Z,2.60
2022-08-05T02:40:22.581Z,2.60
2022-08-05T02:44:06.172Z,2.70
2022-08-05T02:48:11.499Z,3.80
2022-08-05T02:52:03.177Z,2.80
2022-08-05T02:55:54.139Z,4.40
2022-08-05T02:59:27.099Z,5.10
2022-08-05T03:03:16.402Z,2.50
2022-08-05T03:06:59.624Z,3.00
2022-08-05T03:10:11.292Z,3.80
2022-08-05T03:14:03.289Z,4.50
2022-08-05T03:17:54.254Z,2.60
2022-08-05T03:21:33.162Z,3.00
2022-08-05T03:25:32.402Z,4.70
2022-08-05T03:28:36.354Z,3.30
2022-08-05T03:31:56.946Z,4.80
2022-08-05T03:34:53.698Z,3.30
2022-08-05T03:38:04.745Z,6.90
2022-08-05T03:41:33.110Z,3.10
2022-08-05T03:44:29.080Z,4.30
2022-08-05T03:47:18.540Z,3.50
2022-08-05T03:50:38.793Z,5.00
2022-08-05T03:55:50.630Z,2.80
2022-08-05T03:57:41.775Z,2.80
2022-08-05T04:00:51.410Z,5.10
2022-08-05T04:04:21.325Z,8.60
2022-08-05T04:08:29.661Z,2.70
2022-08-05T04:11:52.776Z,2.70
2022-08-05T04:15:24.342Z,4.00
2022-08-05T04:19:12.397Z,2.90
2022-08-05T04:22:41.919Z,3.00
2022-08-05T04:26:00.561Z,3.00
2022-08-05T04:29:49.089Z,3.90
2022-08-05T04:33:04.247Z,3.20
2022-08-05T04:36:45.872Z,3.30
2022-08-05T04:40:30.051Z,3.70
2022-08-05T04:43:22.012Z,4.00
2022-08-05T04:47:13.650Z,9.20
2022-08-05T04:51:01.692Z,4.30
2022-08-05T04:54:26.453Z,8.40
2022-08-05T05:00:53.711Z,9.80
2022-08-05T05:04:21.603Z,3.80
2022-08-05T05:08:06.336Z,5.10
2022-08-05T05:11:53.281Z,5.90
2022-08-05T05:15:59.428Z,5.60
2022-08-05T05:19:23.562Z,5.10
2022-08-05T05:25:49.612Z,4.40
2022-08-05T05:29:40.969Z,4.10
2022-08-05T05:34:01.716Z,3.80
2022-08-05T05:37:59.117Z,3.30
2022-08-05T05:41:18.693Z,3.10
2022-08-05T05:45:07.264Z,3.20
2022-08-05T05:48:48.389Z,3.30
2022-08-05T05:52:40.594Z,6.80
2022-08-05T05:56:26.066Z,3.10
2022-08-05T05:59:23.734Z,7.30
2022-08-05T06:02:00.678Z,7.20
2022-08-05T06:04:35.551Z,8.50
2022-08-05T06:07:07.919Z,8.00
2022-08-05T06:10:01.638Z,3.90
2022-08-05T06:12:29.308Z,4.10
2022-08-05T06:15:23.592Z,3.30
2022-08-05T06:17:54.920Z,5.70
2022-08-05T06:21:07.849Z,5.00
2022-08-05T06:23:44.034Z,3.20
2022-08-05T06:26:21.420Z,6.00
2022-08-05T06:28:52.701Z,4.10
2022-08-05T06:31:30.488Z,5.30
2022-08-05T06:34:09.261Z,6.70
2022-08-05T06:36:58.052Z,11.30
2022-08-05T06:39:30.047Z,9.50
2022-08-05T06:42:04.171Z,5.50
2022-08-05T06:44:41.097Z,5.60
2022-08-05T06:48:52.945Z,8.00
2022-08-05T06:52:03.470Z,6.40
2022-08-05T06:55:08.670Z,14.10
2022-08-05T07:01:27.765Z,5.60
2022-08-05T07:04:26.429Z,8.40
2022-08-05T07:06:54.562Z,6.40
2022-08-05T07:09:24.847Z,13.80
2022-08-05T07:11:55.737Z,7.20
2022-08-05T07:14:46.844Z,6.30
2022-08-05T07:17:59.114Z,7.80
2022-08-05T07:20:37.182Z,17.90
2022-08-05T07:22:57.653Z,8.10
2022-08-05T07:25:56.501Z,4.20
2022-08-05T07:28:17.241Z,9.40
2022-08-05T07:30:50.349Z,7.00
2022-08-05T07:33:36.577Z,15.80
2022-08-05T07:36:20.200Z,16.60
2022-08-05T07:39:01.803Z,12.80
2022-08-05T07:42:08.645Z,13.10
2022-08-05T07:44:43.274Z,12.00
2022-08-05T07:47:15.229Z,13.30
2022-08-05T07:49:54.683Z,11.10
2022-08-05T07:52:32.528Z,13.50
2022-08-05T07:55:02.785Z,9.60
2022-08-05T07:57:57.354Z,10.20
2022-08-05T08:00:27.119Z,6.30
2022-08-05T08:03:15.124Z,7.90
2022-08-05T08:05:49.454Z,7.00
2022-08-05T08:08:19.844Z,9.60
2022-08-05T08:10:49.188Z,10.80
2022-08-05T08:13:22.095Z,12.30
2022-08-05T08:16:35.755Z,18.60
2022-08-05T08:18:49.947Z,8.20
2022-08-05T08:21:19.048Z,9.40
2022-08-05T08:24:01.768Z,14.60
2022-08-05T08:26:32.996Z,14.90
2022-08-05T08:29:21.540Z,9.00
2022-08-05T08:31:52.796Z,7.40
2022-08-05T08:34:30.389Z,8.40
2022-08-05T08:37:03.262Z,5.90
2022-08-05T08:39:44.222Z,13.20
2022-08-05T08:42:33.980Z,11.80
2022-08-05T08:45:17.857Z,4.60
2022-08-05T08:48:11.703Z,10.80
2022-08-05T08:51:03.389Z,10.70
2022-08-05T08:53:40.183Z,5.40
2022-08-05T08:56:22.217Z,5.40
2022-08-05T08:58:50.793Z,4.30
2022-08-05T09:01:23.541Z,8.70
2022-08-05T09:03:58.362Z,4.10
2022-08-05T09:06:30.949Z,5.70
2022-08-05T09:09:02.851Z,6.40
2022-08-05T09:11:52.400Z,4.60
2022-08-05T09:14:57.193Z,3.60
2022-08-05T09:17:40.423Z,4.90
2022-08-05T09:20:04.853Z,3.70
2022-08-05T09:23:07.711Z,3.50
2022-08-05T09:26:01.098Z,4.50
2022-08-05T09:29:08.800Z,2.60
2022-08-05T09:32:42.298Z,1.70
2022-08-05T09:34:26.004Z,5.50
2022-08-05T09:36:59.330Z,6.40
2022-08-05T09:39:41.538Z,5.00
2022-08-05T09:42:24.335Z,4.10
2022-08-05T09:45:17.392Z,6.20
2022-08-05T09:47:56.449Z,2.20
2022-08-05T09:50:48.915Z,5.80
2022-08-05T09:53:25.794Z,3.60
2022-08-05T09:56:04.830Z,4.90
2022-08-05T10:01:15.546Z,2.70
2022-08-05T10:04:13.713Z,3.20
2022-08-05T10:07:01.551Z,2.90
2022-08-05T10:10:14.079Z,2.90
2022-08-05T10:12:58.854Z,2.50
2022-08-05T10:15:34.628Z,2.40
2022-08-05T10:18:25.132Z,2.80
2022-08-05T10:21:06.378Z,4.10
2022-08-05T10:23:59.253Z,2.20
2022-08-05T10:26:32.541Z,3.10
2022-08-05T10:29:10.776Z,3.20
2022-08-05T10:32:52.807Z,4.50
2022-08-05T10:34:31.077Z,7.10
2022-08-05T10:37:03.611Z,2.80
2022-08-05T10:40:04.233Z,3.80
2022-08-05T10:42:33.659Z,6.10
2022-08-05T10:45:20.993Z,2.90
2022-08-05T10:48:30.629Z,3.00
2022-08-05T10:50:58.830Z,3.70
2022-08-05T10:53:55.008Z,10.20
2022-08-05T10:56:28.936Z,2.00
2022-08-05T10:59:12.807Z,3.60
2022-08-05T11:02:14.788Z,3.40
2022-08-05T11:05:11.057Z,1.60
2022-08-05T11:08:01.830Z,3.30
2022-08-05T11:10:50.190Z,2.40
2022-08-05T11:13:57.563Z,2.80
2022-08-05T11:16:47.540Z,2.50
2022-08-05T11:20:16.516Z,2.30
2022-08-05T11:22:49.844Z,1.80
2022-08-05T11:26:04.963Z,5.50
2022-08-05T11:28:44.169Z,7.50
2022-08-05T11:31:58.243Z,3.80
2022-08-05T11:34:14.894Z,1.70
2022-08-05T11:36:52.767Z,2.10
2022-08-05T11:39:55.322Z,1.70
2022-08-05T11:42:28.523Z,3.00
2022-08-05T11:45:05.388Z,2.10
2022-08-05T11:47:49.986Z,1.60
2022-08-05T11:50:25.357Z,1.80
2022-08-05T11:52:57.596Z,1.40
2022-08-05T11:55:31.827Z,3.90
2022-08-05T11:58:09.906Z,2.40
2022-08-05T12:00:44.101Z,1.40
2022-08-05T12:03:28.493Z,12.80
2022-08-05T12:06:02.072Z,1.30
2022-08-05T12:08:52.018Z,2.10
2022-08-05T13:20:01.909Z,4.50
2022-08-05T13:28:24.362Z,1.90
2022-08-05T13:32:21.493Z,2.10
2022-08-05T13:38:57.548Z,2.50
2022-08-05T13:41:58.378Z,1.60
2022-08-05T13:45:43.316Z,1.90
2022-08-05T13:51:36.483Z,1.70
2022-08-05T13:54:25.108Z,2.20
2022-08-05T13:57:17.084Z,2.60
2022-08-05T14:00:41.639Z,2.90
2022-08-05T14:06:29.611Z,2.60
2022-08-05T14:09:04.221Z,1.70
2022-08-05T14:12:04.331Z,2.30
2022-08-05T14:14:40.307Z,3.60
2022-08-05T14:17:36.963Z,1.80
2022-08-05T14:20:27.212Z,1.50
2022-08-05T14:23:24.552Z,2.70
2022-08-05T14:26:10.637Z,1.40
2022-08-05T14:29:15.954Z,1.10
2022-08-05T14:32:02.296Z,1.40
2022-08-05T14:34:35.433Z,1.50
2022-08-05T14:37:08.720Z,4.40
2022-08-05T14:39:49.620Z,1.20
2022-08-05T14:42:26.056Z,2.50
2022-08-05T14:45:00.636Z,1.40
2022-08-05T14:48:04.903Z,1.40
2022-08-05T14:50:44.606Z,3.20
2022-08-05T14:53:44.199Z,1.40
2022-08-05T14:56:13.335Z,1.40
2022-08-05T14:58:47.752Z,2.80
2022-08-05T15:01:48.239Z,1.40
2022-08-05T15:04:15.799Z,4.30
2022-08-05T15:06:49.898Z,4.70
2022-08-05T15:09:51.374Z,2.40
2022-08-05T15:13:28.499Z,1.30
2022-08-05T15:16:13.158Z,1.30
2022-08-05T15:18:41.293Z,2.50
2022-08-05T15:21:09.113Z,2.10
2022-08-05T15:23:38.474Z,1.40
2022-08-05T15:26:06.185Z,2.50
2022-08-05T15:28:34.287Z,4.40
2022-08-05T15:31:05.699Z,1.40
2022-08-05T15:34:04.738Z,2.40
2022-08-05T15:36:25.636Z,1.80
2022-08-05T15:40:39.786Z,1.70
2022-08-05T15:41:56.425Z,2.70
2022-08-05T15:44:28.102Z,1.50
2022-08-05T15:47:05.483Z,2.30
2022-08-05T15:49:58.495Z,7.20
2022-08-05T15:52:29.383Z,3.60
2022-08-05T15:55:18.990Z,1.30
2022-08-05T15:57:51.311Z,3.70
2022-08-05T16:00:30.495Z,3.20
2022-08-05T16:03:15.745Z,1.80
2022-08-05T16:05:47.434Z,1.60
2022-08-05T16:08:23.048Z,2.00
2022-08-05T16:11:02.517Z,5.60
2022-08-05T16:13:35.068Z,2.30
2022-08-05T16:16:07.775Z,3.10
2022-08-05T16:18:51.848Z,2.60
2022-08-05T16:21:59.950Z,3.00
2022-08-05T16:24:40.171Z,2.30
2022-08-05T16:27:04.147Z,3.40
2022-08-05T16:29:50.890Z,2.50
2022-08-05T16:32:29.551Z,2.50
2022-08-05T16:35:01.545Z,6.80
2022-08-05T16:38:16.886Z,2.00
2022-08-05T16:40:51.780Z,2.50
2022-08-05T16:43:25.161Z,1.60
2022-08-05T16:46:05.192Z,1.30
2022-08-05T16:48:37.477Z,3.30
2022-08-05T16:51:09.023Z,1.50
2022-08-05T16:54:03.913Z,4.10
2022-08-05T16:56:28.700Z,2.10
2022-08-05T16:58:57.314Z,3.40
2022-08-05T17:01:24.629Z,2.40
2022-08-05T17:04:09.968Z,4.50
2022-08-05T17:06:37.266Z,3.70
2022-08-05T17:09:19.266Z,3.60
2022-08-05T17:11:48.667Z,3.60
2022-08-05T17:14:34.322Z,2.30
2022-08-05T17:17:14.858Z,1.90
2022-08-05T17:22:44.813Z,2.70
2022-08-05T17:29:33.287Z,8.30
2022-08-05T17:32:32.184Z,4.00
2022-08-05T17:35:23.118Z,3.00
2022-08-05T17:37:51.457Z,4.10
2022-08-05T17:40:35.429Z,5.10
2022-08-05T17:43:47.048Z,3.40
2022-08-05T17:46:36.330Z,11.10
2022-08-05T17:49:59.875Z,3.30
2022-08-05T17:53:11.401Z,4.30
2022-08-05T17:56:19.424Z,3.40
2022-08-05T17:59:40.047Z,5.40
2022-08-05T18:02:53.922Z,8.60
2022-08-05T18:06:12.160Z,6.90
2022-08-05T18:09:25.323Z,5.10
2022-08-05T18:12:53.612Z,2.90
2022-08-05T18:16:01.325Z,2.40
2022-08-05T18:19:12.305Z,5.80
2022-08-05T18:22:24.468Z,4.70
2022-08-05T18:25:57.439Z,4.30
2022-08-05T18:29:10.415Z,6.30
2022-08-05T18:32:28.238Z,4.30
2022-08-05T18:36:00.818Z,5.00
2022-08-05T18:39:42.094Z,3.60
2022-08-05T18:42:39.411Z,3.40
2022-08-05T18:45:58.348Z,3.20
2022-08-05T18:49:08.410Z,4.00
2022-08-05T18:52:32.602Z,2.90
2022-08-05T18:55:41.390Z,2.50
2022-08-05T18:58:50.977Z,8.10
2022-08-05T19:02:03.369Z,2.80
2022-08-05T19:06:12.764Z,3.00
2022-08-05T19:08:35.309Z,2.10
2022-08-05T19:12:00.231Z,5.20
2022-08-05T19:15:10.662Z,4.00
2022-08-05T19:18:38.336Z,2.90
2022-08-05T19:21:51.679Z,2.70
2022-08-05T19:25:00.324Z,3.40
2022-08-05T19:28:16.341Z,2.80
2022-08-05T19:31:26.324Z,2.50
2022-08-05T19:34:38.463Z,1.90
2022-08-05T19:38:04.264Z,4.80
2022-08-05T19:40:30.950Z,2.00
2022-08-05T19:43:04.965Z,3.90
2022-08-05T19:45:33.279Z,4.20
2022-08-05T19:48:05.340Z,3.20
2022-08-05T19:50:32.765Z,2.50
2022-08-05T19:53:09.659Z,3.30
2022-08-05T19:56:15.367Z,3.20
2022-08-05T19:58:29.390Z,2.90
2022-08-05T20:00:57.763Z,4.00
2022-08-05T20:03:24.337Z,3.10
2022-08-05T20:05:55.764Z,2.60
2022-08-05T20:08:24.450Z,3.10
2022-08-05T20:10:52.251Z,1.90
2022-08-05T20:13:30.054Z,3.50
2022-08-05T20:15:57.817Z,6.50
2022-08-05T20:18:33.941Z,7.50
2022-08-05T20:21:05.044Z,4.90
2022-08-05T20:23:58.321Z,5.30
2022-08-05T20:27:11.009Z,3.10
2022-08-05T20:47:20.124Z,5.90
2022-08-05T20:51:15.613Z,6.10
2022-08-05T20:55:54.899Z,5.50
2022-08-05T21:16:16.601Z,1.90
2022-08-05T21:27:08.595Z,2.90
2022-08-05T21:33:56.110Z,5.50
2022-08-05T21:45:51.541Z,4.60
2022-08-05T22:07:59.002Z,4.20
2022-08-05T22:11:35.413Z,3.30
2022-08-05T22:55:21.094Z,4.60
2022-08-05T22:59:45.372Z,6.70
2022-08-05T23:37:50.137Z,3.60
2022-08-05T23:41:04.145Z,2.10
2022-08-05T23:44:41.169Z,2.10
2022-08-05T23:48:59.912Z,2.40
2022-08-05T23:53:48.715Z,6.10
